Time;durP1;ratioP1;P1;durP2;ratioP2;P2;SDS_P1;SDS_P2;PMS_P1;PMS_P2;Temp;Humidity;BMP_temperature;BMP_pressure;BME280_temperature;BME280_humidity;BME280_pressure;Samples;Min_cycle;Max_cycle;Signal;HPM_P1;HPM_P2
2022/09/21 00:00:33;;;;;;;7.25;2.30;;;8.40;99.90;;;;;;4942105;28;20078;-89
2022/09/21 00:02:59;;;;;;;6.93;2.08;;;8.40;99.90;;;;;;4940246;28;20788;-91
2022/09/21 00:05:25;;;;;;;7.65;2.03;;;8.40;99.90;;;;;;4954055;28;20073;-90
2022/09/21 00:07:51;;;;;;;5.22;2.47;;;8.40;99.90;;;;;;4957092;28;20043;-90
2022/09/21 00:10:19;;;;;;;5.10;1.83;;;8.40;99.90;;;;;;4921620;28;20094;-90
2022/09/21 00:12:47;;;;;;;6.15;1.85;;;8.40;99.90;;;;;;4962906;28;20035;-92
2022/09/21 00:15:14;;;;;;;9.25;2.13;;;8.30;99.90;;;;;;4955032;28;20054;-91
2022/09/21 00:17:39;;;;;;;6.47;2.15;;;8.30;99.90;;;;;;4952346;28;20054;-90
2022/09/21 00:20:06;;;;;;;4.82;1.75;;;8.30;99.90;;;;;;4958254;28;20043;-92
2022/09/21 00:22:33;;;;;;;7.80;1.80;;;8.20;99.90;;;;;;4962665;28;20142;-92
2022/09/21 00:25:02;;;;;;;5.10;1.77;;;8.20;99.90;;;;;;4940484;28;20142;-91
2022/09/21 00:27:29;;;;;;;7.85;1.90;;;8.20;99.90;;;;;;4950907;28;20522;-90
2022/09/21 00:30:03;;;;;;;5.85;2.22;;;8.10;99.90;;;;;;4959317;28;20592;-90
2022/09/21 00:32:30;;;;;;;4.68;1.58;;;8.10;99.90;;;;;;4960213;28;20098;-89
2022/09/21 00:34:57;;;;;;;4.75;1.80;;;8.10;99.90;;;;;;4943845;28;20039;-92
2022/09/21 00:37:23;;;;;;;6.90;2.05;;;8.10;99.90;;;;;;4944516;29;20060;-91
2022/09/21 00:39:49;;;;;;;5.15;2.28;;;8.10;99.90;;;;;;4941622;28;20057;-91
2022/09/21 00:42:21;;;;;;;4.18;2.10;;;8.10;99.90;;;;;;4942944;28;20038;-91
2022/09/21 00:44:46;;;;;;;5.07;1.85;;;8.10;99.90;;;;;;4961169;28;20122;-90
2022/09/21 00:47:16;;;;;;;4.05;1.85;;;8.00;99.90;;;;;;4944264;28;20086;-90
2022/09/21 00:49:48;;;;;;;4.32;1.70;;;8.00;99.90;;;;;;4944794;28;20039;-90
2022/09/21 00:52:15;;;;;;;6.72;2.20;;;8.00;99.90;;;;;;4954820;28;20038;-91
2022/09/21 00:54:51;;;;;;;6.10;1.83;;;8.00;99.90;;;;;;4960444;28;20066;-92
2022/09/21 00:57:20;;;;;;;4.05;1.80;;;8.00;99.90;;;;;;4960881;28;20074;-90
2022/09/21 00:59:50;;;;;;;4.97;2.13;;;7.90;99.90;;;;;;4956033;28;20043;-90
2022/09/21 01:02:17;;;;;;;5.18;2.08;;;7.80;99.90;;;;;;4940098;29;20047;-91
2022/09/21 01:04:44;;;;;;;5.18;2.03;;;7.80;99.90;;;;;;4942947;29;20051;-91
2022/09/21 01:07:17;;;;;;;6.70;2.38;;;7.80;99.90;;;;;;4956775;28;20043;-91
2022/09/21 01:09:45;;;;;;;6.32;2.20;;;7.80;99.90;;;;;;4939216;29;20058;-90
2022/09/21 01:12:41;;;;;;;4.47;2.17;;;7.80;99.90;;;;;;4956791;28;20046;-89
2022/09/21 01:15:39;;;;;;;5.95;2.00;;;7.70;99.90;;;;;;4959461;28;20043;-91
2022/09/21 01:18:11;;;;;;;5.57;2.30;;;7.70;99.90;;;;;;4961540;28;20055;-90
2022/09/21 01:20:39;;;;;;;6.07;1.80;;;7.70;99.90;;;;;;4960644;28;20039;-92
2022/09/21 01:23:20;;;;;;;7.05;2.50;;;7.80;99.90;;;;;;4961630;28;20499;-90
2022/09/21 01:26:19;;;;;;;5.95;1.83;;;7.70;99.90;;;;;;4959625;28;20047;-92
2022/09/21 01:29:08;;;;;;;7.22;2.28;;;7.70;99.90;;;;;;4935007;28;20054;-91
2022/09/21 01:31:40;;;;;;;6.90;2.05;;;7.70;99.90;;;;;;4939243;28;20039;-91
2022/09/21 01:34:16;;;;;;;10.35;2.05;;;7.70;99.90;;;;;;4959709;28;20441;-90
2022/09/21 01:36:45;;;;;;;5.70;1.90;;;7.60;99.90;;;;;;4959257;28;20047;-91
2022/09/21 01:39:13;;;;;;;4.50;1.80;;;7.60;99.90;;;;;;4930617;29;20043;-92
2022/09/21 01:41:42;;;;;;;9.35;1.95;;;7.60;99.90;;;;;;4958750;28;20062;-91
2022/09/21 01:44:32;;;;;;;4.45;2.05;;;7.60;99.90;;;;;;4956200;28;20215;-90
2022/09/21 01:47:01;;;;;;;4.72;1.88;;;7.60;99.90;;;;;;4944476;28;20055;-91
2022/09/21 01:49:35;;;;;;;6.28;2.13;;;7.50;99.90;;;;;;4936923;29;20039;-90
2022/09/21 01:52:30;;;;;;;4.88;1.83;;;7.60;99.90;;;;;;4933782;28;20502;-90
2022/09/21 01:55:22;;;;;;;4.57;1.70;;;7.50;99.90;;;;;;4941319;28;20055;-91
2022/09/21 01:57:59;;;;;;;7.38;1.95;;;7.50;99.90;;;;;;4944165;28;20046;-90
2022/09/21 02:00:27;;;;;;;5.43;1.98;;;7.50;99.90;;;;;;4956482;28;20050;-91
2022/09/21 02:03:13;;;;;;;6.35;2.33;;;7.50;99.90;;;;;;4958225;28;20723;-90
2022/09/21 02:05:40;;;;;;;5.95;2.25;;;7.50;99.90;;;;;;4942391;28;20043;-90
2022/09/21 02:08:07;;;;;;;5.93;2.20;;;7.50;99.90;;;;;;4956081;28;20039;-90
2022/09/21 02:10:48;;;;;;;7.18;1.70;;;7.50;99.90;;;;;;4957863;28;20050;-91
2022/09/21 02:13:15;;;;;;;6.80;1.75;;;7.40;99.90;;;;;;4955764;28;20074;-91
2022/09/21 02:16:12;;;;;;;5.57;1.73;;;7.40;99.90;;;;;;4960251;28;20062;-91
2022/09/21 02:18:46;;;;;;;4.70;1.80;;;7.40;99.90;;;;;;4958104;28;20812;-90
2022/09/21 02:21:36;;;;;;;10.20;2.30;;;7.40;99.90;;;;;;4938230;29;20047;-91
2022/09/21 02:24:20;;;;;;;5.55;1.63;;;7.30;99.90;;;;;;4958935;28;20357;-91
2022/09/21 02:27:17;;;;;;;4.55;1.88;;;7.30;99.90;;;;;;4956598;28;20113;-91
2022/09/21 02:30:10;;;;;;;5.60;1.90;;;7.30;99.90;;;;;;4948509;28;20061;-91
2022/09/21 02:33:00;;;;;;;3.63;1.52;;;7.30;99.90;;;;;;4937662;28;20097;-92
2022/09/21 02:36:04;;;;;;;5.00;1.80;;;7.30;99.90;;;;;;4954455;28;20035;-90
2022/09/21 02:38:55;;;;;;;8.60;2.20;;;7.20;99.90;;;;;;4961576;28;20051;-91
2022/09/21 02:41:37;;;;;;;3.40;1.65;;;7.20;99.90;;;;;;4934578;28;20134;-91
2022/09/21 02:44:28;;;;;;;5.53;2.03;;;7.20;99.90;;;;;;4958568;28;20125;-90
2022/09/21 02:47:13;;;;;;;4.72;2.05;;;7.20;99.90;;;;;;4938637;28;20046;-92
2022/09/21 02:49:45;;;;;;;6.07;2.00;;;7.20;99.90;;;;;;4939652;28;20047;-91
2022/09/21 02:52:14;;;;;;;6.18;1.48;;;7.20;99.90;;;;;;4944437;28;20050;-91
2022/09/21 02:54:43;;;;;;;4.80;1.73;;;7.20;99.90;;;;;;4937857;28;20053;-90
2022/09/21 02:57:11;;;;;;;5.45;1.80;;;7.10;99.90;;;;;;4944220;28;20039;-91
2022/09/21 02:59:38;;;;;;;5.05;1.73;;;7.10;99.90;;;;;;4938726;28;20035;-90
2022/09/21 03:02:05;;;;;;;7.38;2.13;;;7.10;99.90;;;;;;4942654;28;20076;-90
2022/09/21 03:04:31;;;;;;;4.43;1.55;;;7.10;99.90;;;;;;4935283;28;20043;-92
2022/09/21 03:06:57;;;;;;;5.65;2.00;;;7.10;99.90;;;;;;4938548;29;20094;-90
2022/09/21 03:09:23;;;;;;;4.22;1.83;;;7.10;99.90;;;;;;4940973;28;20082;-91
2022/09/21 03:11:49;;;;;;;5.72;1.88;;;7.00;99.90;;;;;;4959010;28;20039;-90
2022/09/21 03:14:15;;;;;;;4.75;1.85;;;7.00;99.90;;;;;;4944236;28;20047;-90
2022/09/21 03:16:41;;;;;;;4.65;1.92;;;7.10;99.90;;;;;;4924082;28;20102;-90
2022/09/21 03:19:07;;;;;;;6.63;1.70;;;7.30;99.90;;;;;;4957508;28;20387;-92
2022/09/21 03:21:33;;;;;;;5.78;2.00;;;7.00;99.90;;;;;;4954568;28;20047;-90
2022/09/21 03:23:59;;;;;;;6.50;2.33;;;7.00;99.90;;;;;;4958200;28;20047;-90
2022/09/21 03:26:24;;;;;;;4.32;1.77;;;6.90;99.90;;;;;;4924981;29;20098;-90
2022/09/21 03:28:53;;;;;;;5.85;1.90;;;6.90;99.90;;;;;;4940152;29;20073;-90
2022/09/21 03:31:19;;;;;;;4.35;1.88;;;6.90;99.90;;;;;;4936089;29;20063;-90
2022/09/21 03:33:45;;;;;;;6.20;1.92;;;6.90;99.90;;;;;;4926425;29;20048;-89
2022/09/21 03:36:11;;;;;;;6.78;2.33;;;6.90;99.90;;;;;;4936078;29;20035;-89
2022/09/21 03:38:37;;;;;;;5.97;1.88;;;6.80;99.90;;;;;;4919756;29;20036;-89
2022/09/21 03:41:03;;;;;;;5.88;2.03;;;6.80;99.90;;;;;;4938217;29;20134;-90
2022/09/21 03:43:29;;;;;;;5.00;1.83;;;6.80;99.90;;;;;;4903571;29;20119;-92
2022/09/21 03:45:55;;;;;;;9.95;2.00;;;6.70;99.90;;;;;;4925120;29;20143;-90
2022/09/21 03:48:21;;;;;;;4.53;1.90;;;6.70;99.90;;;;;;4942036;29;20556;-90
2022/09/21 03:50:47;;;;;;;4.72;1.80;;;6.70;99.90;;;;;;4941983;29;20042;-89
2022/09/21 03:53:13;;;;;;;6.20;2.35;;;6.70;99.90;;;;;;4939785;29;20130;-90
2022/09/21 03:55:39;;;;;;;5.63;2.25;;;6.80;99.90;;;;;;4941169;29;20039;-90
2022/09/21 03:58:06;;;;;;;5.38;2.17;;;6.70;99.90;;;;;;4944305;29;20548;-91
2022/09/21 04:00:32;;;;;;;4.25;1.80;;;6.70;99.90;;;;;;4925046;29;20050;-90
2022/09/21 04:02:58;;;;;;;5.15;1.80;;;6.70;99.90;;;;;;4946521;29;20039;-90
2022/09/21 04:05:23;;;;;;;6.32;2.42;;;6.60;99.90;;;;;;4938746;29;20135;-90
2022/09/21 04:07:49;;;;;;;4.38;2.03;;;6.60;99.90;;;;;;4938844;29;20441;-93
2022/09/21 04:10:18;;;;;;;6.90;2.58;;;6.60;99.90;;;;;;4922314;29;20075;-90
2022/09/21 04:12:45;;;;;;;6.70;2.25;;;6.60;99.90;;;;;;4922208;29;20055;-90
2022/09/21 04:15:13;;;;;;;4.82;2.35;;;6.60;99.90;;;;;;4929808;29;20052;-92
2022/09/21 04:17:39;;;;;;;3.78;1.98;;;6.60;99.90;;;;;;4941852;29;20047;-90
2022/09/21 04:20:05;;;;;;;5.70;1.90;;;6.50;99.90;;;;;;4921140;29;20597;-90
2022/09/21 04:22:31;;;;;;;4.80;1.77;;;6.50;99.90;;;;;;4925213;29;20039;-90
2022/09/21 04:24:57;;;;;;;4.10;1.77;;;6.50;99.90;;;;;;4922323;29;20949;-91
2022/09/21 04:27:23;;;;;;;4.05;1.80;;;6.50;99.90;;;;;;4928309;29;20147;-89
2022/09/21 04:29:49;;;;;;;4.72;2.55;;;6.50;99.90;;;;;;4925739;29;20129;-92
2022/09/21 04:32:15;;;;;;;8.18;2.15;;;6.40;99.90;;;;;;4939194;29;20130;-91
2022/09/21 04:34:40;;;;;;;6.35;2.40;;;6.40;99.90;;;;;;4942094;29;20062;-90
2022/09/21 04:37:07;;;;;;;6.40;2.13;;;6.40;99.90;;;;;;4938119;29;20040;-91
2022/09/21 04:39:33;;;;;;;5.82;2.22;;;6.40;99.90;;;;;;4943287;29;20042;-92
2022/09/21 04:42:00;;;;;;;5.45;2.78;;;6.40;99.90;;;;;;4937881;29;20050;-91
2022/09/21 04:44:26;;;;;;;7.25;2.60;;;6.00;99.90;;;;;;4922765;29;20052;-90
2022/09/21 04:46:52;;;;;;;6.18;2.30;;;6.40;99.90;;;;;;4937954;29;20040;-91
2022/09/21 04:49:17;;;;;;;11.25;2.03;;;6.30;99.90;;;;;;4942790;29;20050;-90
2022/09/21 04:51:43;;;;;;;4.00;2.33;;;6.30;99.90;;;;;;4923613;29;20063;-90
2022/09/21 04:54:09;;;;;;;4.63;2.38;;;6.30;99.90;;;;;;4938502;29;20118;-91
2022/09/21 04:56:35;;;;;;;4.88;2.05;;;6.40;99.90;;;;;;4926180;29;20128;-92
2022/09/21 04:59:01;;;;;;;5.97;2.75;;;6.40;99.90;;;;;;4925907;29;20400;-91
2022/09/21 05:01:27;;;;;;;7.60;2.50;;;6.40;99.90;;;;;;4921544;29;20039;-91
2022/09/21 05:03:52;;;;;;;5.80;2.45;;;6.30;99.90;;;;;;4937182;29;20052;-90
2022/09/21 05:06:18;;;;;;;5.60;2.60;;;6.30;99.90;;;;;;4937937;29;20089;-90
2022/09/21 05:11:29;;;;;;;5.93;2.45;;;6.60;99.90;;;;;;4941200;29;20452;-91
2022/09/21 05:13:54;;;;;;;8.98;2.50;;;6.30;99.90;;;;;;4933571;29;20035;-90
2022/09/21 05:16:20;;;;;;;7.15;2.70;;;6.30;99.90;;;;;;4944940;29;20036;-91
2022/09/21 05:18:46;;;;;;;6.07;1.90;;;6.30;99.90;;;;;;4926840;29;20091;-90
2022/09/21 05:21:13;;;;;;;8.40;2.63;;;6.30;99.90;;;;;;4950242;29;20043;-89
2022/09/21 05:23:39;;;;;;;6.35;2.70;;;6.30;99.90;;;;;;4928399;29;20062;-92
2022/09/21 05:26:05;;;;;;;5.43;2.20;;;6.20;99.90;;;;;;4963795;28;20055;-91
2022/09/21 05:28:31;;;;;;;4.82;2.40;;;6.20;99.90;;;;;;4963421;28;20039;-90
2022/09/21 05:30:57;;;;;;;7.05;2.45;;;6.20;99.90;;;;;;4949435;28;20050;-90
2022/09/21 05:33:28;;;;;;;5.22;2.22;;;6.20;99.90;;;;;;4955035;29;20031;-91
2022/09/21 05:36:10;;;;;;;6.28;2.00;;;6.10;99.90;;;;;;4940944;28;20039;-88
2022/09/21 05:38:36;;;;;;;6.35;2.30;;;6.10;99.90;;;;;;4966778;28;20042;-83
2022/09/21 05:41:02;;;;;;;4.68;2.30;;;6.10;99.90;;;;;;4943934;28;20042;-87
2022/09/21 05:43:28;;;;;;;5.45;2.22;;;6.10;99.90;;;;;;4963023;28;20054;-88
2022/09/21 05:46:30;;;;;;;4.60;1.80;;;6.10;99.90;;;;;;4961678;28;20047;-88
2022/09/21 05:49:26;;;;;;;7.20;2.78;;;6.20;99.90;;;;;;4963328;28;20035;-88
2022/09/21 05:52:16;;;;;;;8.00;2.33;;;6.20;99.90;;;;;;4967118;28;20035;-91
2022/09/21 05:54:53;;;;;;;6.60;2.58;;;6.20;99.90;;;;;;4945676;29;20058;-91
2022/09/21 05:57:40;;;;;;;6.30;2.50;;;6.20;99.90;;;;;;4958754;28;20055;-88
2022/09/21 06:00:09;;;;;;;5.60;2.25;;;6.30;99.90;;;;;;4960040;28;20041;-88
2022/09/21 06:02:45;;;;;;;4.20;2.33;;;6.30;99.90;;;;;;4958419;28;20089;-86
2022/09/21 06:05:12;;;;;;;6.47;2.45;;;6.30;99.90;;;;;;4943996;28;20055;-91
2022/09/21 06:07:38;;;;;;;6.78;2.05;;;6.30;99.90;;;;;;4927180;28;20042;-87
2022/09/21 06:10:04;;;;;;;5.22;2.28;;;6.30;99.90;;;;;;4942336;29;20047;-90
2022/09/21 06:12:29;;;;;;;4.93;2.50;;;6.30;99.90;;;;;;4965849;28;20039;-94
2022/09/21 06:14:55;;;;;;;6.75;2.80;;;6.40;99.90;;;;;;4968579;28;20054;-90
2022/09/21 06:17:21;;;;;;;6.60;2.60;;;6.40;99.90;;;;;;4948119;28;20034;-89
2022/09/21 06:19:47;;;;;;;7.45;2.45;;;6.40;99.90;;;;;;4962550;28;20050;-88
2022/09/21 06:22:13;;;;;;;9.10;2.78;;;6.40;99.90;;;;;;4947047;28;20039;-89
2022/09/21 06:24:38;;;;;;;6.13;2.20;;;6.30;99.90;;;;;;4961844;28;20066;-86
2022/09/21 06:27:04;;;;;;;9.85;2.88;;;6.40;99.90;;;;;;4958578;28;20043;-87
2022/09/21 06:29:30;;;;;;;9.13;2.40;;;6.40;99.90;;;;;;4968258;28;20046;-88
2022/09/21 06:31:56;;;;;;;4.90;2.42;;;6.40;99.90;;;;;;4929755;28;20432;-90
2022/09/21 06:34:21;;;;;;;6.28;2.80;;;6.50;99.90;;;;;;4946932;28;20051;-90
2022/09/21 06:36:47;;;;;;;7.63;2.58;;;6.50;99.90;;;;;;4966541;28;20042;-90
2022/09/21 06:39:13;;;;;;;8.25;2.88;;;6.60;99.90;;;;;;4961583;28;20095;-91
2022/09/21 06:41:39;;;;;;;7.55;2.70;;;6.60;99.90;;;;;;4927882;29;20047;-91
2022/09/21 06:44:05;;;;;;;6.72;2.42;;;6.70;99.90;;;;;;4947201;28;20103;-89
2022/09/21 06:46:30;;;;;;;6.50;2.60;;;6.70;99.90;;;;;;4936475;28;20130;-90
2022/09/21 06:48:57;;;;;;;7.28;2.78;;;6.70;99.90;;;;;;4964344;28;20080;-89
2022/09/21 06:51:22;;;;;;;6.88;3.30;;;6.70;99.90;;;;;;4946834;28;20050;-90
2022/09/21 06:53:52;;;;;;;9.15;3.28;;;6.80;99.90;;;;;;4964827;28;20047;-89
2022/09/21 06:56:18;;;;;;;8.95;4.20;;;6.80;99.90;;;;;;4928216;28;20053;-90
2022/09/21 06:58:46;;;;;;;8.65;3.78;;;6.90;99.90;;;;;;4957039;28;20122;-89
2022/09/21 07:01:13;;;;;;;8.02;3.90;;;6.90;99.90;;;;;;4949530;28;20038;-90
2022/09/21 07:03:40;;;;;;;7.97;4.25;;;7.40;99.90;;;;;;4920592;28;20043;-90
2022/09/21 07:06:07;;;;;;;11.95;3.97;;;7.00;99.90;;;;;;4935145;29;20126;-89
2022/09/21 07:08:34;;;;;;;7.72;3.35;;;7.10;99.90;;;;;;4934748;28;20047;-89
2022/09/21 07:11:01;;;;;;;7.70;3.75;;;7.10;99.90;;;;;;4938474;28;20065;-88
2022/09/21 07:13:28;;;;;;;12.25;4.53;;;7.10;99.90;;;;;;4953124;28;20039;-91
2022/09/21 07:15:54;;;;;;;9.18;4.50;;;7.20;99.90;;;;;;4957533;28;20039;-94
2022/09/21 07:18:20;;;;;;;10.07;3.90;;;7.30;99.90;;;;;;4947407;28;20399;-87
2022/09/21 07:20:47;;;;;;;10.93;4.57;;;7.30;99.90;;;;;;4948894;28;20056;-89
2022/09/21 07:23:15;;;;;;;9.85;4.53;;;7.40;99.90;;;;;;4942333;28;20054;-88
2022/09/21 07:25:42;;;;;;;11.80;4.97;;;7.50;99.90;;;;;;4948895;28;20055;-91
2022/09/21 07:28:09;;;;;;;11.27;4.32;;;7.60;99.90;;;;;;4952349;28;20054;-86
2022/09/21 07:30:36;;;;;;;11.57;4.45;;;7.70;99.90;;;;;;4953605;28;20043;-86
2022/09/21 07:33:01;;;;;;;9.15;4.55;;;7.70;99.90;;;;;;4943069;29;20574;-85
2022/09/21 07:35:27;;;;;;;9.38;4.43;;;7.80;99.90;;;;;;4953726;28;20043;-85
2022/09/21 07:37:55;;;;;;;13.70;4.32;;;7.80;99.90;;;;;;4937235;28;20084;-85
2022/09/21 07:40:20;;;;;;;13.43;4.40;;;7.90;99.90;;;;;;4955090;28;20051;-85
2022/09/21 07:42:46;;;;;;;10.52;3.92;;;8.00;99.90;;;;;;4954675;28;20055;-85
2022/09/21 07:45:12;;;;;;;9.60;3.63;;;8.10;99.90;;;;;;4937976;28;20149;-86
2022/09/21 07:47:37;;;;;;;12.45;4.00;;;8.20;99.90;;;;;;4956396;28;20216;-86
2022/09/21 07:50:03;;;;;;;10.43;3.40;;;8.30;99.90;;;;;;4955828;28;20067;-85
2022/09/21 07:52:29;;;;;;;12.10;3.60;;;8.40;99.90;;;;;;4950671;28;20031;-83
2022/09/21 07:54:54;;;;;;;12.73;3.80;;;8.50;99.90;;;;;;4934630;28;20305;-84
2022/09/21 08:00:05;;;;;;;9.80;3.80;;;8.70;99.90;;;;;;4952447;28;20051;-85
2022/09/21 08:02:30;;;;;;;7.38;3.00;;;8.80;99.90;;;;;;4952179;28;20085;-86
2022/09/21 08:04:56;;;;;;;9.32;2.88;;;8.90;99.90;;;;;;4951059;28;20039;-86
2022/09/21 08:07:22;;;;;;;11.18;2.90;;;9.00;99.90;;;;;;4954717;28;20039;-86
2022/09/21 08:09:49;;;;;;;11.57;3.08;;;9.10;99.90;;;;;;4933733;28;20046;-86
2022/09/21 08:12:17;;;;;;;9.85;2.65;;;9.00;99.90;;;;;;4952348;28;20747;-86
2022/09/21 08:14:43;;;;;;;11.48;2.30;;;9.20;99.90;;;;;;4953015;28;20054;-87
2022/09/21 08:17:09;;;;;;;12.18;2.63;;;9.30;99.90;;;;;;4934635;28;20407;-86
2022/09/21 08:19:35;;;;;;;9.80;2.22;;;9.40;99.90;;;;;;4951507;28;20066;-86
2022/09/21 08:22:01;;;;;;;10.40;2.22;;;9.60;99.90;;;;;;4952292;28;20071;-87
2022/09/21 08:24:26;;;;;;;9.73;2.10;;;9.60;99.90;;;;;;4952288;28;20043;-87
2022/09/21 08:26:52;;;;;;;13.02;2.55;;;9.60;99.90;;;;;;4950852;28;20070;-86
2022/09/21 08:29:18;;;;;;;10.45;1.70;;;9.70;99.90;;;;;;4941215;28;20117;-86
2022/09/21 08:31:45;;;;;;;9.27;1.60;;;9.80;99.90;;;;;;4953972;28;20160;-86
2022/09/21 08:34:11;;;;;;;7.82;1.80;;;9.90;99.90;;;;;;4953164;28;20550;-87
2022/09/21 08:36:37;;;;;;;8.65;1.85;;;10.10;99.90;;;;;;4954254;28;20039;-86
2022/09/21 08:39:06;;;;;;;10.95;2.30;;;10.00;99.90;;;;;;4960727;28;20046;-87
2022/09/21 08:41:41;;;;;;;8.23;2.10;;;10.10;99.90;;;;;;4953510;28;20483;-86
2022/09/21 08:44:16;;;;;;;8.85;1.77;;;10.20;99.90;;;;;;4935556;28;20043;-86
2022/09/21 08:46:43;;;;;;;9.32;1.70;;;10.40;99.90;;;;;;4959460;28;20050;-86
2022/09/21 08:49:21;;;;;;;5.07;1.15;;;10.50;99.90;;;;;;4935375;28;20055;-86
2022/09/21 08:51:59;;;;;;;8.00;1.30;;;10.60;99.90;;;;;;4953443;28;20373;-86
2022/09/21 08:54:37;;;;;;;8.18;1.20;;;10.70;99.90;;;;;;4954504;28;20035;-86
2022/09/21 08:57:03;;;;;;;9.73;1.42;;;10.90;99.90;;;;;;4952962;28;20606;-86
2022/09/21 08:59:29;;;;;;;6.13;1.23;;;10.90;99.90;;;;;;4950621;28;20062;-86
2022/09/21 09:02:04;;;;;;;14.02;1.20;;;11.00;99.90;;;;;;4958318;28;20078;-86
2022/09/21 09:04:39;;;;;;;4.53;0.75;;;11.10;99.90;;;;;;4950766;28;20055;-87
2022/09/21 09:07:22;;;;;;;5.68;0.80;;;11.20;99.90;;;;;;4936708;29;20051;-85
2022/09/21 09:10:01;;;;;;;5.80;0.88;;;11.40;99.90;;;;;;4952941;28;20042;-86
2022/09/21 09:12:53;;;;;;;8.45;1.05;;;11.60;99.90;;;;;;4951689;28;20043;-86
2022/09/21 09:15:51;;;;;;;5.50;0.82;;;11.70;99.90;;;;;;4957722;28;20039;-86
2022/09/21 09:18:31;;;;;;;3.63;0.75;;;12.00;99.90;;;;;;4957338;28;20094;-86
2022/09/21 09:21:04;;;;;;;9.65;1.08;;;11.80;99.90;;;;;;4951576;28;20047;-87
2022/09/21 09:23:50;;;;;;;7.75;0.93;;;11.80;99.90;;;;;;4952385;28;20479;-87
2022/09/21 09:26:35;;;;;;;6.00;0.93;;;11.90;99.90;;;;;;4948872;28;20070;-86
2022/09/21 09:29:10;;;;;;;6.88;1.30;;;12.00;99.90;;;;;;4950938;28;20042;-86
2022/09/21 09:31:38;;;;;;;9.30;0.88;;;12.10;99.90;;;;;;4953789;28;20097;-86
2022/09/21 09:34:09;;;;;;;6.18;0.77;;;12.50;99.90;;;;;;4950435;28;20412;-86
2022/09/21 09:36:38;;;;;;;7.45;0.68;;;12.40;99.90;;;;;;4939805;28;20456;-87
2022/09/21 09:39:13;;;;;;;7.55;0.82;;;12.50;99.90;;;;;;4952582;28;20046;-86
2022/09/21 09:41:57;;;;;;;;;;;12.80;99.90;;;;;;4958702;28;20126;-86
2022/09/21 09:44:56;;;;;;;5.35;1.27;;;13.00;99.90;;;;;;4952217;28;19929;-86
2022/09/21 09:47:31;;;;;;;9.32;1.02;;;13.20;99.90;;;;;;4950731;28;20110;-86
2022/09/21 09:50:08;;;;;;;3.75;0.68;;;13.20;99.90;;;;;;4949944;28;20086;-86
2022/09/21 09:52:34;;;;;;;6.95;0.80;;;13.10;99.90;;;;;;4953774;28;20122;-87
2022/09/21 09:55:13;;;;;;;7.45;0.80;;;13.10;99.90;;;;;;4934616;29;20178;-87
2022/09/21 09:57:38;;;;;;;5.28;0.82;;;13.00;99.90;;;;;;4950679;28;20058;-86
2022/09/21 10:00:12;;;;;;;7.60;0.82;;;13.10;99.90;;;;;;4918332;29;20039;-86
2022/09/21 10:02:51;;;;;;;6.65;0.50;;;13.30;99.90;;;;;;4951988;28;20042;-87
2022/09/21 10:05:21;;;;;;;7.68;1.00;;;13.60;99.90;;;;;;4933770;29;20043;-87
2022/09/21 10:07:48;;;;;;;9.93;0.98;;;13.80;99.90;;;;;;4933729;28;20039;-86
2022/09/21 10:10:45;;;;;;;6.55;0.70;;;14.00;99.90;;;;;;4938364;28;20038;-87
2022/09/21 10:13:22;;;;;;;5.05;0.63;;;14.20;99.90;;;;;;4939077;28;20118;-87
2022/09/21 10:15:55;;;;;;;3.35;0.70;;;14.50;99.90;;;;;;4946010;28;20109;-87
2022/09/21 10:18:40;;;;;;;3.53;0.40;;;14.70;99.90;;;;;;4955434;28;20039;-86
2022/09/21 10:21:14;;;;;;;6.85;0.63;;;15.00;99.90;;;;;;4940715;28;20122;-86
2022/09/21 10:24:05;;;;;;;4.13;1.23;;;14.70;99.90;;;;;;4950922;28;20047;-86
2022/09/21 10:26:37;;;;;;;5.20;0.70;;;14.80;99.90;;;;;;4948992;28;20323;-87
2022/09/21 10:29:21;;;;;;;4.13;0.60;;;14.70;99.90;;;;;;4953708;28;20054;-87
2022/09/21 10:32:01;;;;;;;4.87;0.50;;;14.60;99.90;;;;;;4937662;28;20067;-86
2022/09/21 10:34:32;;;;;;;8.80;0.93;;;14.70;99.90;;;;;;4951563;28;20039;-87
2022/09/21 10:37:01;;;;;;;4.93;0.80;;;14.80;99.90;;;;;;4937207;28;20035;-86
2022/09/21 10:39:28;;;;;;;5.78;0.80;;;14.80;99.90;;;;;;4950993;28;20443;-87
2022/09/21 10:41:57;;;;;;;5.15;0.57;;;14.80;99.90;;;;;;4949889;28;20031;-86
2022/09/21 10:44:28;;;;;;;3.17;0.63;;;15.00;99.90;;;;;;4932659;29;20059;-86
2022/09/21 10:46:54;;;;;;;2.55;0.50;;;15.20;99.90;;;;;;4932072;28;20068;-86
2022/09/21 10:49:26;;;;;;;5.00;0.60;;;15.40;99.90;;;;;;4954754;28;20118;-86
2022/09/21 10:51:55;;;;;;;5.40;0.60;;;15.70;99.90;;;;;;4953552;28;20070;-85
2022/09/21 10:54:29;;;;;;;5.00;0.73;;;15.90;99.90;;;;;;4952632;28;20110;-87
2022/09/21 10:57:02;;;;;;;3.58;0.70;;;16.10;99.90;;;;;;4948177;28;20036;-85
2022/09/21 10:59:31;;;;;;;6.18;0.63;;;16.40;99.90;;;;;;4949204;28;20030;-85
2022/09/21 11:01:58;;;;;;;5.45;0.68;;;16.50;99.90;;;;;;4951382;28;20031;-85
2022/09/21 11:04:48;;;;;;;5.18;0.75;;;16.70;99.90;;;;;;4954536;28;20129;-86
2022/09/21 11:07:23;;;;;;;5.90;0.90;;;16.80;99.90;;;;;;4949800;28;20094;-86
2022/09/21 11:10:14;;;;;;;5.43;0.98;;;17.00;99.90;;;;;;4933625;29;20078;-87
2022/09/21 11:13:04;;;;;;;3.13;0.80;;;17.10;99.90;;;;;;4951337;28;20716;-86
2022/09/21 11:15:52;;;;;;;5.78;0.93;;;17.20;99.90;;;;;;4948798;28;20046;-86
2022/09/21 11:18:29;;;;;;;5.82;0.57;;;17.30;99.90;;;;;;4937581;28;20043;-86
2022/09/21 11:21:04;;;;;;;3.63;0.50;;;17.40;99.90;;;;;;4939754;28;20043;-86
2022/09/21 11:23:44;;;;;;;4.25;0.65;;;17.50;99.90;;;;;;4942020;29;20040;-86
2022/09/21 11:26:23;;;;;;;5.45;0.60;;;17.60;99.90;;;;;;4948531;28;20051;-86
2022/09/21 11:28:58;;;;;;;3.80;0.75;;;17.60;99.90;;;;;;4932961;29;20047;-86
2022/09/21 11:31:36;;;;;;;4.70;0.52;;;17.70;99.90;;;;;;4932533;29;20035;-87
2022/09/21 11:34:45;;;;;;;4.68;0.68;;;17.80;99.90;;;;;;4950106;28;20403;-87
2022/09/21 11:37:26;;;;;;;3.40;0.60;;;17.90;98.20;;;;;;4950314;28;20460;-95
2022/09/21 11:40:01;;;;;;;4.88;0.50;;;18.00;99.90;;;;;;4937737;29;20095;-91
2022/09/21 11:42:56;;;;;;;6.95;0.60;;;17.90;99.90;;;;;;4959689;28;20523;-91
2022/09/21 11:45:50;;;;;;;3.47;0.60;;;17.70;99.00;;;;;;4951093;28;20058;-90
2022/09/21 11:48:34;;;;;;;3.80;0.65;;;17.50;99.40;;;;;;4951333;28;20047;-90
2022/09/21 11:51:18;;;;;;;6.00;1.67;;;17.30;99.90;;;;;;4933075;29;20035;-89
2022/09/21 11:54:11;;;;;;;4.00;0.70;;;17.10;99.90;;;;;;4953461;28;20051;-90
2022/09/21 11:56:53;;;;;;;3.40;0.93;;;17.00;99.90;;;;;;4935878;29;20476;-90
2022/09/21 11:59:38;;;;;;;4.38;0.50;;;16.90;99.90;;;;;;4953134;28;20158;-90
2022/09/21 12:02:58;;;;;;;3.10;0.70;;;16.80;99.90;;;;;;4949318;28;20036;-90
2022/09/21 12:05:57;;;;;;;3.22;0.73;;;16.50;99.50;;;;;;4853519;29;20589;-90
2022/09/21 12:09:03;;;;;;;5.88;0.75;;;16.40;99.90;;;;;;4839782;29;20514;-89
2022/09/21 12:11:38;;;;;;;5.55;0.70;;;16.30;99.90;;;;;;4838654;29;20450;-90
2022/09/21 12:14:26;;;;;;;6.03;0.77;;;16.20;99.90;;;;;;4838083;29;20057;-90
2022/09/21 12:17:12;;;;;;;3.45;0.40;;;16.10;99.90;;;;;;4844171;29;20050;-89
2022/09/21 12:19:50;;;;;;;2.83;0.65;;;16.00;99.90;;;;;;4850978;29;20152;-87
2022/09/21 12:22:28;;;;;;;10.20;0.88;;;16.10;99.90;;;;;;4822597;29;20038;-90
2022/09/21 12:24:59;;;;;;;6.82;0.93;;;16.20;99.90;;;;;;4840537;29;20062;-90
2022/09/21 12:27:31;;;;;;;3.85;0.47;;;16.40;99.90;;;;;;4838666;29;20125;-90
2022/09/21 12:30:06;;;;;;;5.53;0.98;;;16.50;99.90;;;;;;4849271;29;20474;-91
2022/09/21 12:33:00;;;;;;;2.13;0.50;;;16.50;99.90;;;;;;4842781;29;20140;-92
2022/09/21 12:35:55;;;;;;;2.43;0.50;;;16.70;99.90;;;;;;4842082;29;20065;-92
2022/09/21 12:38:40;;;;;;;;;;;16.80;99.90;;;;;;4858788;29;20051;-87
2022/09/21 12:41:17;;;;;;;2.55;0.55;;;17.00;99.40;;;;;;4951862;28;19949;-87
2022/09/21 12:43:48;;;;;;;4.45;0.55;;;17.10;99.90;;;;;;4947387;28;20040;-87
2022/09/21 12:46:24;;;;;;;3.72;0.47;;;17.40;99.90;;;;;;4953438;28;20032;-87
2022/09/21 12:48:51;;;;;;;3.75;0.60;;;17.60;99.90;;;;;;4957665;28;20032;-88
2022/09/21 12:51:29;;;;;;;3.42;0.50;;;17.90;98.70;;;;;;4953655;28;20447;-90
2022/09/21 12:54:01;;;;;;;2.55;0.40;;;18.00;96.20;;;;;;5071144;23;20052;-90
2022/09/21 12:56:45;;;;;;;3.17;0.50;;;18.30;97.50;;;;;;4933342;28;20058;-88
2022/09/21 12:59:36;;;;;;;6.13;0.70;;;18.70;96.70;;;;;;4949256;28;20087;-86
2022/09/21 13:02:23;;;;;;;3.47;0.50;;;18.60;97.30;;;;;;4941858;28;20273;-88
2022/09/21 13:05:25;;;;;;;2.65;0.47;;;18.80;96.00;;;;;;4934496;28;20043;-86
2022/09/21 13:08:09;;;;;;;6.72;0.77;;;18.90;95.80;;;;;;4931947;28;20040;-88
2022/09/21 13:10:54;;;;;;;3.80;0.60;;;19.00;95.90;;;;;;4947550;28;20039;-94
2022/09/21 13:13:36;;;;;;;4.22;0.50;;;19.10;95.60;;;;;;4943998;29;20039;-91
2022/09/21 13:16:04;;;;;;;5.68;0.80;;;19.20;94.50;;;;;;4932955;29;20061;-95
2022/09/21 13:18:32;;;;;;;5.70;0.55;;;19.30;94.00;;;;;;4934185;29;20039;-92
2022/09/21 13:21:00;;;;;;;6.43;0.50;;;19.30;94.10;;;;;;4953341;28;20053;-92
2022/09/21 13:23:34;;;;;;;4.25;0.50;;;19.00;94.30;;;;;;4963049;28;20028;-93
2022/09/21 13:26:09;;;;;;;2.67;0.60;;;18.80;94.30;;;;;;4947805;28;20051;-94
2022/09/21 13:29:04;;;;;;;2.22;0.60;;;18.60;94.50;;;;;;4948082;28;20078;-95